Port Hardy Airport
CYZT : now visible

Airfield :











YOU CAN JOIN US ON...

 
LOGIN :

Register | Disclaimer

   EN    FR    IT 

 









Legend :    VFR   Marginal VFR   IFR   Intensive IFR   Very Intensive IFR
Visi :
Ceiling :
>= 8 km
>= 3000ft
5 to 8 km
1000 to 3000 ft
1500m to 5 km
500 to 1000 ft
800 to 1500m
200 to 500 ft
< 800m
< 200 ft
Symbols :   Thunderstorms  Fog  Heavy snow  Heavy precipitations  Wind > 20 kt






- Airport Elevation : 71 ft
- IATA code : YZT


CYZT - Port Hardy

CURRENT METAR :
  • 070000Z 33010KT 20SM FEW030 BKN045 BKN075 09/03 A3003 RMK CU2SC4AC1 SLP171

EXPIRED METARs :
  • 062300Z 35009KT 20SM SCT030 BKN046 BKN075 08/03 A3002 RMK CU3SC2AC2 SLP169
  • 062200Z 01008KT 20SM FEW040 BKN077 BKN250 09/04 A3001 RMK CU2AC4CS1 SLP165

TAF TAF CYZT
Valid from the 06 at 19:00 until the 07 at 07:00 UTC


061838Z 0619/0707 30005KT P6SM FEW020 FEW040 BKN080
FM062100 31007KT P6SM SCT020 BKN040
TEMPO 0621/0707 P6SM -SHRA BKN020 OVC040
BECMG 0701/0703 26005KT RMK NXT FCST BY 070100Z



MET'MAP, your aeronautical weather chart ! - Copyright ORBIFLY December 2007 - Disclaimer

ORBIFLY MET'MAP TEAM :

Programming & Development : Alexandra Zaïnal
Concept & original design : Baudouin d'Aumeries
Assistance for programming : Marc-Olivier Méhu
Technical & hardware support : Manuel Goepfert

Contact : metmap@orbifly.com




SOURCES & CREDITS :

   NOAA       Earth
Advisory